createdAt,value
2023-02-01T00:02:27.405Z,88.17
2023-02-01T00:04:58.929Z,87.71
2023-02-01T00:07:29.958Z,85.35
2023-02-01T00:09:59.319Z,86.34
2023-02-01T00:12:27.106Z,86.43
2023-02-01T00:14:58.302Z,85.83
2023-02-01T00:17:30.087Z,86.57
2023-02-01T00:19:57.962Z,85.20
2023-02-01T00:22:28.250Z,84.98
2023-02-01T00:25:03.780Z,84.47
2023-02-01T00:27:35.907Z,83.71
2023-02-01T00:30:07.581Z,82.39
2023-02-01T00:32:38.071Z,84.15
2023-02-01T00:35:08.914Z,83.67
2023-02-01T00:37:36.696Z,83.81
2023-02-01T00:40:05.236Z,83.89
2023-02-01T00:42:33.141Z,83.17
2023-02-01T00:45:01.023Z,82.20
2023-02-01T00:47:28.862Z,82.43
2023-02-01T00:49:58.682Z,82.87
2023-02-01T00:52:28.753Z,82.97
2023-02-01T00:54:56.945Z,83.22
2023-02-01T00:57:25.056Z,82.82
2023-02-01T00:59:52.934Z,81.32
2023-02-01T01:02:23.335Z,82.09
2023-02-01T01:04:51.246Z,82.77
2023-02-01T01:07:20.455Z,83.61
2023-02-01T01:09:54.401Z,84.33
2023-02-01T01:12:24.571Z,82.90
2023-02-01T01:14:52.416Z,82.91
2023-02-01T01:17:20.284Z,82.93
2023-02-01T01:19:51.038Z,84.41
2023-02-01T01:22:25.345Z,82.19
2023-02-01T01:24:55.742Z,82.10
2023-02-01T01:27:27.771Z,81.29
2023-02-01T01:29:55.767Z,82.55
2023-02-01T01:32:27.378Z,81.91
2023-02-01T01:34:55.389Z,82.33
2023-02-01T01:37:25.111Z,82.67
2023-02-01T01:39:53.015Z,82.21
2023-02-01T01:42:20.928Z,82.19
2023-02-01T01:45:04.729Z,83.46
2023-02-01T01:47:36.757Z,83.46
2023-02-01T01:50:14.763Z,84.09
2023-02-01T01:52:46.224Z,83.86
2023-02-01T01:55:15.873Z,83.46
2023-02-01T01:57:51.079Z,82.76
2023-02-01T02:00:23.165Z,81.63
2023-02-01T02:03:00.018Z,82.23
2023-02-01T02:05:29.503Z,83.05
2023-02-01T02:08:02.410Z,82.82
2023-02-01T02:10:44.479Z,83.81
2023-02-01T02:13:14.895Z,82.04
2023-02-01T02:15:48.449Z,80.79
2023-02-01T02:18:21.100Z,81.12
2023-02-01T02:21:06.477Z,79.66
2023-02-01T02:23:59.943Z,77.19
2023-02-01T02:26:36.041Z,78.56
2023-02-01T02:29:52.181Z,78.57
2023-02-01T02:35:10.352Z,75.61
2023-02-01T02:37:47.185Z,74.81
2023-02-01T02:40:21.927Z,76.84
2023-02-01T02:43:11.917Z,76.82
2023-02-01T02:46:01.763Z,76.58
2023-02-01T02:48:32.567Z,75.79
2023-02-01T02:51:23.617Z,77.05
2023-02-01T02:54:14.754Z,78.58
2023-02-01T02:57:03.389Z,77.32
2023-02-01T02:59:49.895Z,75.53
2023-02-01T03:02:42.551Z,76.49
2023-02-01T03:05:13.172Z,76.75
2023-02-01T03:08:07.873Z,77.04
2023-02-01T03:10:43.247Z,78.56
2023-02-01T03:13:12.808Z,78.12
2023-02-01T03:15:42.719Z,77.70
2023-02-01T03:18:17.188Z,78.34
2023-02-01T03:20:48.585Z,78.67
2023-02-01T03:23:25.673Z,79.24
2023-02-01T03:26:06.388Z,79.27
2023-02-01T03:28:36.209Z,80.30
2023-02-01T03:31:07.426Z,79.78
2023-02-01T03:33:43.533Z,82.35
2023-02-01T03:36:17.729Z,83.62
2023-02-01T03:38:53.424Z,83.49
2023-02-01T03:41:26.443Z,83.12
2023-02-01T03:43:57.407Z,82.47
2023-02-01T03:46:34.202Z,81.67
2023-02-01T03:49:12.951Z,81.09
2023-02-01T03:51:43.751Z,81.81
2023-02-01T03:54:14.275Z,82.29
2023-02-01T03:56:49.791Z,82.19
2023-02-01T03:59:20.225Z,82.15
2023-02-01T04:01:48.007Z,81.82
2023-02-01T04:04:21.219Z,80.52
2023-02-01T04:06:49.455Z,79.49
2023-02-01T04:09:19.936Z,78.88
2023-02-01T04:11:47.806Z,79.19
2023-02-01T04:14:23.018Z,78.88
2023-02-01T04:16:54.203Z,80.69
2023-02-01T04:19:23.259Z,80.67
2023-02-01T04:21:51.738Z,80.64
2023-02-01T04:24:21.253Z,81.01
2023-02-01T04:26:54.379Z,80.62
2023-02-01T04:29:22.230Z,80.52
2023-02-01T04:31:54.836Z,80.87
2023-02-01T04:34:25.905Z,80.45
2023-02-01T04:36:56.734Z,79.26
2023-02-01T04:39:30.223Z,78.58
2023-02-01T04:41:57.999Z,79.50
2023-02-01T04:44:26.115Z,79.13
2023-02-01T04:46:59.609Z,79.74
2023-02-01T04:49:28.030Z,79.32
2023-02-01T04:51:56.253Z,80.20
2023-02-01T04:54:27.074Z,80.51
2023-02-01T04:56:57.015Z,79.30
2023-02-01T04:59:24.834Z,79.56
2023-02-01T05:01:53.382Z,79.02
2023-02-01T05:04:22.339Z,78.82
2023-02-01T05:06:52.521Z,79.12
2023-02-01T05:09:22.162Z,78.59
2023-02-01T05:12:09.721Z,77.04
2023-02-01T05:14:44.534Z,78.15
2023-02-01T05:17:16.352Z,77.42
2023-02-01T05:19:47.246Z,77.66
2023-02-01T05:22:15.183Z,78.29
2023-02-01T05:24:53.531Z,80.29
2023-02-01T05:27:31.333Z,79.92
2023-02-01T05:30:03.702Z,81.67
2023-02-01T05:32:31.978Z,82.50
2023-02-01T05:35:02.686Z,82.16
2023-02-01T05:37:33.765Z,82.10
2023-02-01T05:40:03.775Z,80.93
2023-02-01T05:42:34.247Z,81.11
2023-02-01T05:45:03.725Z,83.16
2023-02-01T05:47:31.647Z,83.59
2023-02-01T05:50:02.382Z,85.58
2023-02-01T05:52:30.521Z,85.46
2023-02-01T05:54:59.777Z,85.45
2023-02-01T05:57:31.052Z,85.43
2023-02-01T06:00:05.653Z,86.32
2023-02-01T06:02:34.270Z,86.91
2023-02-01T06:05:02.397Z,86.82
2023-02-01T06:07:30.419Z,87.10
2023-02-01T06:09:58.485Z,87.08
2023-02-01T06:12:29.220Z,86.99
2023-02-01T06:15:00.231Z,86.46
2023-02-01T06:17:30.709Z,87.46
2023-02-01T06:20:12.220Z,85.87
2023-02-01T06:22:45.231Z,85.34
2023-02-01T06:25:14.500Z,84.73
2023-02-01T06:27:42.411Z,84.15
2023-02-01T06:30:14.587Z,84.69
2023-02-01T06:32:45.003Z,85.69
2023-02-01T06:35:17.455Z,85.75
2023-02-01T06:37:45.748Z,84.23
2023-02-01T06:40:15.790Z,84.36
2023-02-01T06:42:49.228Z,83.10
2023-02-01T06:45:17.268Z,82.88
2023-02-01T06:47:48.434Z,83.38
2023-02-01T06:50:17.698Z,83.02
2023-02-01T06:52:45.700Z,82.12
2023-02-01T06:55:14.028Z,82.26
2023-02-01T06:57:41.998Z,82.58
2023-02-01T07:00:14.999Z,82.47
2023-02-01T07:02:45.339Z,81.24
2023-02-01T07:05:15.868Z,81.96
2023-02-01T07:07:52.420Z,82.34
2023-02-01T07:10:23.064Z,82.49
2023-02-01T07:12:53.435Z,82.08
2023-02-01T07:15:25.234Z,81.44
2023-02-01T07:17:53.826Z,81.01
2023-02-01T07:20:23.905Z,80.36
2023-02-01T07:22:57.792Z,80.52
2023-02-01T07:25:27.280Z,80.69
2023-02-01T07:27:55.285Z,79.63
2023-02-01T07:30:30.332Z,80.09
2023-02-01T07:33:02.294Z,80.16
2023-02-01T07:35:32.403Z,80.51
2023-02-01T07:38:00.421Z,81.18
2023-02-01T07:40:29.793Z,80.46
2023-02-01T07:42:58.531Z,80.67
2023-02-01T07:45:37.040Z,80.36
2023-02-01T07:48:07.912Z,80.74
2023-02-01T07:50:43.009Z,80.09
2023-02-01T07:53:11.246Z,80.45
2023-02-01T07:55:43.091Z,81.30
2023-02-01T07:58:11.144Z,81.56
2023-02-01T08:00:59.821Z,81.17
2023-02-01T08:03:29.654Z,78.95
2023-02-01T08:05:59.071Z,79.44
2023-02-01T08:08:27.425Z,79.25
2023-02-01T08:11:05.153Z,80.21
2023-02-01T08:13:36.172Z,78.69
2023-02-01T08:16:09.659Z,78.58
2023-02-01T08:18:38.704Z,78.43
2023-02-01T08:21:10.494Z,77.39
2023-02-01T08:23:39.852Z,77.48
2023-02-01T08:26:16.879Z,77.67
2023-02-01T08:28:46.554Z,78.24
2023-02-01T08:31:16.783Z,78.95
2023-02-01T08:33:49.328Z,79.05
2023-02-01T08:36:20.649Z,78.81
2023-02-01T08:38:51.576Z,79.04
2023-02-01T08:41:22.620Z,78.83
2023-02-01T08:44:02.765Z,78.37
2023-02-01T08:46:30.666Z,78.24
2023-02-01T08:48:59.344Z,78.15
2023-02-01T08:51:31.972Z,78.29
2023-02-01T08:53:59.989Z,78.12
2023-02-01T08:56:27.894Z,77.01
2023-02-01T08:58:56.081Z,78.09
2023-02-01T09:01:26.632Z,78.66
2023-02-01T09:03:54.718Z,78.64
2023-02-01T09:06:22.838Z,79.13
2023-02-01T09:08:55.759Z,80.34
2023-02-01T09:11:26.774Z,80.03
2023-02-01T09:13:54.858Z,79.71
2023-02-01T09:16:26.021Z,79.04
2023-02-01T09:19:14.846Z,79.23
2023-02-01T09:21:47.327Z,78.53
2023-02-01T09:24:16.994Z,78.00
2023-02-01T09:26:45.703Z,77.53
2023-02-01T09:29:14.362Z,77.83
2023-02-01T09:31:57.403Z,77.64
2023-02-01T09:34:31.022Z,76.66
2023-02-01T09:36:59.268Z,77.15
2023-02-01T09:39:31.098Z,76.85
2023-02-01T09:42:05.348Z,76.79
2023-02-01T09:44:46.175Z,75.78
2023-02-01T09:47:19.611Z,76.29
2023-02-01T09:49:53.866Z,76.34
2023-02-01T09:52:29.732Z,75.54
2023-02-01T09:55:03.833Z,74.40
2023-02-01T09:57:44.284Z,74.09
2023-02-01T10:00:19.449Z,73.92
2023-02-01T10:02:47.751Z,74.28
2023-02-01T10:05:18.596Z,74.99
2023-02-01T10:07:52.020Z,75.57
2023-02-01T10:10:28.352Z,74.33
2023-02-01T10:13:22.451Z,73.98
2023-02-01T10:16:04.530Z,73.55
2023-02-01T10:18:56.050Z,71.66
2023-02-01T10:21:40.522Z,71.81
2023-02-01T10:24:20.357Z,72.36
2023-02-01T10:26:56.264Z,72.12
2023-02-01T10:29:29.212Z,72.40
2023-02-01T10:32:02.426Z,72.79
2023-02-01T10:34:33.443Z,72.56
2023-02-01T10:37:03.544Z,72.34
2023-02-01T10:39:31.820Z,72.15
2023-02-01T10:42:05.478Z,71.63
2023-02-01T10:44:34.151Z,73.29
2023-02-01T10:47:02.590Z,73.95
2023-02-01T10:49:39.503Z,73.48
2023-02-01T10:52:16.349Z,73.50
2023-02-01T10:54:47.273Z,72.93
2023-02-01T10:57:31.834Z,72.23
2023-02-01T11:00:05.405Z,72.28
2023-02-01T11:02:35.175Z,72.32
2023-02-01T11:05:06.600Z,72.36
2023-02-01T11:07:39.455Z,72.42
2023-02-01T11:10:38.134Z,71.81
2023-02-01T11:13:07.527Z,71.39
2023-02-01T11:15:38.622Z,70.78
2023-02-01T11:18:18.581Z,70.95
2023-02-01T11:20:50.408Z,70.62
2023-02-01T11:23:20.932Z,71.05
2023-02-01T11:25:53.894Z,70.80
2023-02-01T11:28:30.907Z,70.47
2023-02-01T11:31:02.285Z,69.52
2023-02-01T11:33:36.109Z,70.04
2023-02-01T11:36:12.065Z,69.11
2023-02-01T11:38:40.912Z,69.84
2023-02-01T11:41:16.491Z,69.93
2023-02-01T11:44:18.653Z,68.95
2023-02-01T11:46:49.733Z,68.46
2023-02-01T11:49:24.605Z,68.40
2023-02-01T11:52:12.165Z,68.42
2023-02-01T11:54:52.467Z,69.03
2023-02-01T11:57:33.837Z,69.47
2023-02-01T12:00:14.250Z,68.17
2023-02-01T12:03:03.138Z,68.75
2023-02-01T12:05:44.152Z,68.13
2023-02-01T12:08:24.255Z,67.77
2023-02-01T12:11:08.557Z,69.11
2023-02-01T12:13:48.181Z,69.41
2023-02-01T12:16:28.366Z,68.73
2023-02-01T12:19:14.071Z,68.80
2023-02-01T12:22:03.996Z,68.92
2023-02-01T12:25:16.639Z,69.85
2023-02-01T12:28:02.969Z,71.20
2023-02-01T12:30:45.426Z,70.21
2023-02-01T12:33:33.310Z,70.00
2023-02-01T12:36:13.415Z,68.98
2023-02-01T12:38:59.679Z,70.42
2023-02-01T12:41:43.379Z,69.79
2023-02-01T12:44:26.407Z,70.93
2023-02-01T12:47:00.719Z,71.25
2023-02-01T12:49:43.985Z,72.82
2023-02-01T12:52:19.640Z,72.45
2023-02-01T12:54:55.378Z,73.70
2023-02-01T12:57:27.619Z,73.07
2023-02-01T13:00:02.054Z,73.09
2023-02-01T13:02:40.549Z,73.32
2023-02-01T13:05:19.408Z,72.56
2023-02-01T13:07:53.653Z,71.89
2023-02-01T13:10:28.754Z,71.14
2023-02-01T13:13:03.908Z,72.38
2023-02-01T13:15:50.068Z,71.69
2023-02-01T13:18:21.298Z,72.55
2023-02-01T13:20:55.975Z,72.79
2023-02-01T13:23:32.319Z,72.16
2023-02-01T13:26:01.830Z,71.58
2023-02-01T13:28:49.763Z,71.52
2023-02-01T13:31:40.816Z,72.01
2023-02-01T13:35:06.785Z,74.90
2023-02-01T13:38:11.684Z,74.85
2023-02-01T13:40:44.312Z,74.44
2023-02-01T13:43:21.818Z,75.70
2023-02-01T13:45:53.178Z,74.58
2023-02-01T13:48:26.054Z,74.18
2023-02-01T13:50:56.457Z,74.97
2023-02-01T13:53:30.590Z,75.55
2023-02-01T13:56:01.403Z,74.17
2023-02-01T13:58:34.781Z,73.36
2023-02-01T14:01:34.622Z,72.89
2023-02-01T14:04:04.222Z,73.41
2023-02-01T14:06:47.422Z,74.29
2023-02-01T14:09:41.774Z,73.16
2023-02-01T14:12:50.380Z,73.05
2023-02-01T14:15:31.984Z,72.25
2023-02-01T14:18:03.280Z,72.24
2023-02-01T14:20:42.369Z,72.17
2023-02-01T14:23:20.339Z,72.14
2023-02-01T14:26:03.599Z,73.18
2023-02-01T14:28:35.411Z,73.11
2023-02-01T14:31:17.683Z,73.49
2023-02-01T14:33:46.445Z,73.98
2023-02-01T14:36:28.705Z,75.28
2023-02-01T14:38:56.840Z,75.60
2023-02-01T14:41:35.835Z,75.47
2023-02-01T14:44:32.435Z,75.04
2023-02-01T14:47:35.895Z,75.17
2023-02-01T14:50:31.814Z,75.41
2023-02-01T14:53:21.428Z,75.18
2023-02-01T14:55:51.336Z,73.93
2023-02-01T14:58:35.253Z,73.63
2023-02-01T15:01:06.073Z,73.96
2023-02-01T15:03:45.739Z,74.00
2023-02-01T15:06:35.893Z,73.09
2023-02-01T15:09:06.673Z,72.99
2023-02-01T15:11:56.393Z,72.59
2023-02-01T15:14:26.909Z,73.34
2023-02-01T15:16:55.807Z,73.37
2023-02-01T15:19:29.161Z,73.01
2023-02-01T15:22:03.166Z,73.13
2023-02-01T15:24:34.075Z,73.16
2023-02-01T15:27:11.419Z,72.72
2023-02-01T15:29:42.561Z,71.21
2023-02-01T15:32:30.846Z,71.71
2023-02-01T15:34:59.012Z,69.22
2023-02-01T15:37:27.107Z,69.92
2023-02-01T15:40:23.907Z,69.44
2023-02-01T15:42:56.528Z,68.33
2023-02-01T15:45:29.108Z,68.57
2023-02-01T15:47:58.723Z,68.94
2023-02-01T15:50:27.578Z,69.22
2023-02-01T15:52:57.944Z,70.15
2023-02-01T15:55:32.320Z,70.88
2023-02-01T15:58:02.326Z,70.25
2023-02-01T16:00:43.713Z,70.91
2023-02-01T16:03:36.541Z,69.93
2023-02-01T16:06:06.886Z,68.97
2023-02-01T16:08:38.373Z,68.49
2023-02-01T16:11:23.651Z,67.28
2023-02-01T16:13:53.893Z,68.35
2023-02-01T16:16:23.162Z,67.82
2023-02-01T16:18:53.363Z,68.67
2023-02-01T16:21:23.645Z,67.89
2023-02-01T16:23:53.191Z,67.79
2023-02-01T16:26:30.308Z,68.36
2023-02-01T16:28:58.421Z,69.32
2023-02-01T16:31:30.495Z,68.73
2023-02-01T16:34:04.571Z,68.69
2023-02-01T16:36:32.610Z,68.94
2023-02-01T16:39:04.794Z,68.68
2023-02-01T16:41:35.597Z,69.61
2023-02-01T16:44:03.560Z,67.77
2023-02-01T16:46:40.382Z,67.99
2023-02-01T16:49:10.249Z,69.27
2023-02-01T16:51:42.764Z,69.27
2023-02-01T16:54:10.711Z,69.58
2023-02-01T16:56:41.806Z,68.97
2023-02-01T16:59:13.515Z,69.01
2023-02-01T17:01:45.967Z,69.49
2023-02-01T17:04:19.346Z,69.50
2023-02-01T17:06:52.344Z,68.45
2023-02-01T17:09:21.903Z,68.34
2023-02-01T17:11:49.873Z,68.98
2023-02-01T17:14:19.923Z,69.03
2023-02-01T17:16:50.615Z,68.74
2023-02-01T17:19:25.132Z,68.16
2023-02-01T17:21:56.650Z,69.10
2023-02-01T17:24:30.741Z,69.26
2023-02-01T17:27:05.408Z,68.66
2023-02-01T17:29:36.701Z,69.13
2023-02-01T17:32:06.758Z,68.62
2023-02-01T17:34:36.898Z,69.04
2023-02-01T17:37:08.077Z,69.14
2023-02-01T17:39:57.487Z,70.40
2023-02-01T17:42:26.365Z,70.77
2023-02-01T17:44:57.768Z,69.57
2023-02-01T17:47:28.210Z,69.35
2023-02-01T17:49:57.347Z,68.05
2023-02-01T17:52:26.923Z,69.71
2023-02-01T17:55:07.074Z,70.00
2023-02-01T17:57:35.220Z,71.30
2023-02-01T18:00:09.353Z,70.35
2023-02-01T18:02:42.100Z,70.38
2023-02-01T18:05:21.384Z,70.19
2023-02-01T18:07:51.865Z,70.57
2023-02-01T18:10:21.855Z,70.03
2023-02-01T18:12:56.635Z,70.76
2023-02-01T18:15:27.689Z,72.01
2023-02-01T18:18:01.013Z,72.69
2023-02-01T18:20:31.251Z,73.22
2023-02-01T18:23:01.928Z,73.67
2023-02-01T18:25:34.177Z,73.15
2023-02-01T18:28:07.144Z,71.86
2023-02-01T18:30:36.799Z,72.51
2023-02-01T18:33:06.982Z,72.89
2023-02-01T18:35:35.489Z,71.82
2023-02-01T18:38:06.570Z,70.95
2023-02-01T18:40:37.876Z,70.56
2023-02-01T18:43:05.989Z,70.18
2023-02-01T18:45:37.358Z,70.22
2023-02-01T18:48:09.537Z,68.98
2023-02-01T18:50:41.610Z,68.98
2023-02-01T18:53:14.360Z,69.06
2023-02-01T18:55:42.818Z,70.43
2023-02-01T18:58:17.891Z,69.48
2023-02-01T19:00:50.547Z,70.56
2023-02-01T19:03:26.681Z,71.18
2023-02-01T19:06:00.220Z,71.63
2023-02-01T19:08:40.892Z,71.58
2023-02-01T19:11:10.084Z,72.11
2023-02-01T19:13:38.639Z,71.81
2023-02-01T19:16:13.627Z,71.54
2023-02-01T19:18:43.121Z,71.81
2023-02-01T19:21:13.372Z,72.73
2023-02-01T19:23:47.175Z,71.05
2023-02-01T19:26:17.633Z,72.12
2023-02-01T19:28:48.090Z,71.56
2023-02-01T19:31:25.786Z,72.03
2023-02-01T19:33:56.747Z,73.11
2023-02-01T19:36:26.807Z,73.08
2023-02-01T19:39:00.569Z,73.22
2023-02-01T19:41:32.728Z,73.15
2023-02-01T19:44:00.877Z,72.46
2023-02-01T19:46:28.837Z,72.78
2023-02-01T19:49:00.912Z,71.35
2023-02-01T19:51:32.081Z,71.69
2023-02-01T19:54:02.042Z,72.82
2023-02-01T19:56:35.052Z,72.84
2023-02-01T19:59:03.641Z,72.71
2023-02-01T20:01:31.380Z,72.51
2023-02-01T20:04:05.370Z,72.21
2023-02-01T20:06:38.676Z,71.45
2023-02-01T20:09:07.365Z,72.24
2023-02-01T20:11:41.814Z,72.91
2023-02-01T20:14:10.274Z,73.01
2023-02-01T20:16:44.292Z,72.10
2023-02-01T20:19:13.569Z,72.70
2023-02-01T20:21:43.079Z,73.36
2023-02-01T20:24:17.066Z,73.39
2023-02-01T20:26:49.084Z,72.14
2023-02-01T20:29:20.128Z,72.25
2023-02-01T20:31:51.572Z,73.44
2023-02-01T20:34:24.620Z,73.81
2023-02-01T20:36:55.291Z,72.72
2023-02-01T20:39:23.153Z,72.56
2023-02-01T20:41:56.924Z,73.11
2023-02-01T20:44:26.461Z,72.16
2023-02-01T20:46:54.381Z,73.48
2023-02-01T20:49:23.990Z,73.17
2023-02-01T20:51:55.357Z,73.71
2023-02-01T20:54:26.061Z,73.61
2023-02-01T20:56:55.516Z,73.45
2023-02-01T20:59:26.501Z,73.43
2023-02-01T21:01:56.848Z,73.88
2023-02-01T21:04:29.706Z,73.46
2023-02-01T21:06:58.947Z,73.28
2023-02-01T21:09:35.703Z,72.53
2023-02-01T21:12:07.389Z,73.41
2023-02-01T21:14:36.990Z,73.70
2023-02-01T21:17:08.039Z,72.99
2023-02-01T21:19:49.238Z,73.26
2023-02-01T21:22:20.200Z,73.44
2023-02-01T21:24:53.931Z,72.09
2023-02-01T21:27:24.145Z,73.17
2023-02-01T21:29:53.044Z,73.46
2023-02-01T21:32:25.398Z,73.20
2023-02-01T21:34:55.119Z,74.30
2023-02-01T21:37:25.542Z,74.26
2023-02-01T21:39:54.930Z,72.81
2023-02-01T21:42:24.778Z,75.08
2023-02-01T21:44:55.250Z,75.71
2023-02-01T21:47:26.036Z,75.16
2023-02-01T21:49:57.799Z,74.95
2023-02-01T21:52:26.047Z,75.14
2023-02-01T21:55:07.306Z,75.00
2023-02-01T21:57:38.344Z,75.48
2023-02-01T22:00:10.045Z,74.71
2023-02-01T22:02:37.929Z,73.53
2023-02-01T22:05:09.568Z,73.22
2023-02-01T22:07:37.427Z,74.57
2023-02-01T22:10:12.422Z,74.54
2023-02-01T22:12:45.085Z,76.88
2023-02-01T22:15:13.289Z,78.29
2023-02-01T22:17:41.131Z,77.99
2023-02-01T22:20:14.275Z,79.21
2023-02-01T22:22:42.309Z,78.98
2023-02-01T22:25:10.597Z,78.37
2023-02-01T22:28:32.003Z,78.21
2023-02-01T22:30:31.948Z,78.72
2023-02-01T22:32:59.808Z,78.18
2023-02-01T22:35:39.360Z,79.22
2023-02-01T22:38:07.409Z,79.39
2023-02-01T22:40:36.397Z,79.79
2023-02-01T22:43:04.197Z,79.90
2023-02-01T22:45:32.028Z,79.86
2023-02-01T22:48:03.216Z,78.67
2023-02-01T22:50:32.863Z,79.54
2023-02-01T22:53:00.801Z,79.43
2023-02-01T22:55:28.832Z,80.03
2023-02-01T22:57:59.267Z,78.56
2023-02-01T23:00:27.315Z,79.04
2023-02-01T23:02:55.609Z,78.12
2023-02-01T23:05:27.427Z,77.83
2023-02-01T23:07:58.892Z,77.96
2023-02-01T23:10:26.809Z,78.06
2023-02-01T23:12:54.702Z,78.21
2023-02-01T23:15:22.856Z,78.39
2023-02-01T23:17:51.019Z,77.96
2023-02-01T23:20:22.928Z,79.17
2023-02-01T23:22:54.013Z,79.16
2023-02-01T23:25:25.193Z,78.12
2023-02-01T23:27:54.653Z,78.29
2023-02-01T23:30:25.059Z,77.67
2023-02-01T23:32:52.951Z,79.53
2023-02-01T23:35:25.511Z,77.29
2023-02-01T23:37:53.696Z,77.81
2023-02-01T23:40:22.991Z,76.46
2023-02-01T23:43:07.345Z,77.59
2023-02-01T23:45:35.206Z,77.87
2023-02-01T23:48:05.640Z,78.74
2023-02-01T23:50:36.467Z,79.65
2023-02-01T23:53:13.315Z,77.94
2023-02-01T23:55:43.641Z,78.55
2023-02-01T23:58:11.689Z,78.10
